Time;durP1;ratioP1;P1;durP2;ratioP2;P2;SDS_P1;SDS_P2;PMS_P1;PMS_P2;Temp;Humidity;BMP_temperature;BMP_pressure;BME280_temperature;BME280_humidity;BME280_pressure;Samples;Min_cycle;Max_cycle;Signal;HPM_P1;HPM_P2
2023/08/10 00:00:47;;;;;;;6.00;5.50;;;;;;;15.47;100.00;96727.25;5031224;27;105497;-72
2023/08/10 00:03:14;;;;;;;7.97;6.80;;;;;;;15.38;100.00;96736.91;5053768;27;101866;-72
2023/08/10 00:05:41;;;;;;;6.90;6.30;;;;;;;15.15;100.00;96744.72;5031138;27;105652;-72
2023/08/10 00:08:08;;;;;;;7.87;7.17;;;;;;;15.04;100.00;96756.50;5050064;27;102442;-72
2023/08/10 00:10:35;;;;;;;8.60;7.70;;;;;;;15.06;100.00;96757.03;5031693;27;105302;-72
2023/08/10 00:13:05;;;;;;;8.50;7.70;;;;;;;15.09;100.00;96751.16;5031001;27;105394;-72
2023/08/10 00:15:32;;;;;;;7.33;6.67;;;;;;;15.17;100.00;96750.59;5031520;27;101897;-72
2023/08/10 00:18:00;;;;;;;7.83;7.13;;;;;;;15.23;100.00;96744.97;5031807;27;105906;-72
2023/08/10 00:20:27;;;;;;;7.83;7.10;;;;;;;15.24;100.00;96749.25;5031097;27;105461;-72
2023/08/10 00:22:54;;;;;;;8.77;7.97;;;;;;;15.13;100.00;96754.88;5031461;27;102200;-72
2023/08/10 00:25:21;;;;;;;11.20;9.33;;;;;;;15.15;100.00;96771.50;5034352;27;104129;-72
2023/08/10 00:27:49;;;;;;;9.40;8.50;;;;;;;15.06;100.00;96781.97;5031494;27;102144;-72
2023/08/10 00:30:18;;;;;;;8.50;7.57;;;;;;;14.96;100.00;96779.28;5031370;27;105242;-72
2023/08/10 00:32:45;;;;;;;4.70;4.30;;;;;;;14.87;100.00;96767.47;5030937;27;105378;-72
2023/08/10 00:35:13;;;;;;;4.50;4.10;;;;;;;14.87;100.00;96761.34;5031473;27;102122;-72
2023/08/10 00:37:40;;;;;;;4.43;4.03;;;;;;;14.89;100.00;96761.88;5031399;27;104824;-72
2023/08/10 00:40:12;;;;;;;4.60;4.20;;;;;;;14.87;100.00;96751.41;5030694;27;105763;-72
2023/08/10 00:42:39;;;;;;;7.00;3.57;;;;;;;14.89;100.00;96757.28;5031388;27;101934;-72
2023/08/10 00:45:08;;;;;;;4.17;3.77;;;;;;;14.83;100.00;96758.38;5031126;27;105423;-72
2023/08/10 00:47:37;;;;;;;4.37;3.97;;;;;;;14.88;100.00;96765.63;5033920;27;105617;-72
2023/08/10 00:50:05;;;;;;;3.50;3.30;;;;;;;14.81;100.00;96763.19;5031146;27;106483;-72
2023/08/10 00:52:33;;;;;;;3.47;3.17;;;;;;;14.82;100.00;96755.97;5030387;27;105533;-72
2023/08/10 00:55:01;;;;;;;3.50;3.20;;;;;;;14.84;100.00;96745.78;5031205;27;102044;-72
2023/08/10 00:57:29;;;;;;;3.57;3.33;;;;;;;14.82;100.00;96742.59;5030882;27;105514;-72
2023/08/10 00:59:56;;;;;;;3.97;3.40;;;;;;;14.87;100.00;96747.94;5032081;27;105785;-72
2023/08/10 01:02:23;;;;;;;4.07;3.63;;;;;;;14.92;100.00;96745.25;5034618;27;101864;-72
2023/08/10 01:04:52;;;;;;;3.90;3.60;;;;;;;14.93;100.00;96746.88;5034763;27;105790;-72
2023/08/10 01:07:25;;;;;;;3.63;3.33;;;;;;;14.89;100.00;96754.63;5034029;27;105504;-72
2023/08/10 01:10:06;;;;;;;3.53;3.33;;;;;;;14.81;100.00;96749.00;5037921;27;102207;-72
2023/08/10 01:12:39;;;;;;;3.40;3.20;;;;;;;14.68;100.00;96741.50;5033769;27;104471;-72
2023/08/10 01:15:13;;;;;;;3.40;3.20;;;;;;;14.65;100.00;96755.41;5053000;27;102105;-72
2023/08/10 01:17:46;;;;;;;3.57;3.03;;;;;;;14.67;100.00;96747.94;5034414;27;105618;-72
2023/08/10 01:20:15;;;;;;;3.07;2.87;;;;;;;14.61;100.00;96751.69;5033700;27;105146;-72
2023/08/10 01:22:51;;;;;;;4.13;3.27;;;;;;;14.51;100.00;96746.31;5034379;27;102083;-72
2023/08/10 01:25:22;;;;;;;3.07;2.77;;;;;;;14.52;100.00;96743.38;5034101;27;105567;-72
2023/08/10 01:27:50;;;;;;;3.30;3.10;;;;;;;14.55;100.00;96750.06;5033705;27;105613;-72
2023/08/10 01:30:18;;;;;;;3.03;2.83;;;;;;;14.57;100.00;96750.59;5034223;27;102177;-72
2023/08/10 01:32:47;;;;;;;3.23;3.00;;;;;;;14.58;100.00;96749.53;5037062;27;105247;-72
2023/08/10 01:35:14;;;;;;;3.10;2.90;;;;;;;14.53;100.00;96746.84;5033978;27;101893;-72
2023/08/10 01:37:41;;;;;;;3.33;2.70;;;;;;;14.45;100.00;96747.38;5052351;27;102830;-72
2023/08/10 01:40:10;;;;;;;3.20;2.63;;;;;;;14.45;100.00;96739.34;5033230;27;105519;-72
2023/08/10 01:42:38;;;;;;;3.00;2.70;;;;;;;14.48;100.00;96744.97;5034054;27;102288;-72
2023/08/10 01:45:06;;;;;;;3.00;2.80;;;;;;;14.44;100.00;96741.22;5033848;27;105422;-72
2023/08/10 01:47:37;;;;;;;3.30;3.10;;;;;;;14.44;100.00;96745.78;5033294;27;105953;-72
2023/08/10 01:50:07;;;;;;;3.30;3.00;;;;;;;14.40;100.00;96747.38;5033852;27;101999;-72
2023/08/10 01:52:38;;;;;;;3.80;3.50;;;;;;;14.42;100.00;96750.56;5033978;27;105550;-72
2023/08/10 01:55:09;;;;;;;3.70;3.40;;;;;;;14.44;100.00;96753.81;5036487;27;104199;-72
2023/08/10 01:57:38;;;;;;;4.07;3.77;;;;;;;14.44;100.00;96751.91;5033002;27;105646;-72
2023/08/10 02:00:07;;;;;;;4.13;3.83;;;;;;;14.48;100.00;96750.31;5033140;27;105725;-72
2023/08/10 02:02:42;;;;;;;3.47;3.27;;;;;;;14.49;100.00;96757.28;5048793;27;101830;-72
2023/08/10 02:05:12;;;;;;;3.40;3.20;;;;;;;14.53;100.00;96760.22;5033458;27;104545;-72
2023/08/10 02:07:41;;;;;;;3.70;3.40;;;;;;;14.54;100.00;96759.97;5051370;27;102847;-72
2023/08/10 02:10:10;;;;;;;4.47;3.80;;;;;;;14.61;100.00;96759.72;5033382;27;101993;-72
2023/08/10 02:12:39;;;;;;;4.43;4.07;;;;;;;14.63;100.00;96760.25;5032820;27;105654;-72
2023/08/10 02:15:07;;;;;;;3.90;3.60;;;;;;;14.65;100.00;96756.22;5036393;27;105622;-72
2023/08/10 02:17:36;;;;;;;4.40;4.00;;;;;;;14.67;100.00;96756.75;5033517;27;105455;-72
2023/08/10 02:20:11;;;;;;;3.87;3.57;;;;;;;14.70;100.00;96761.59;5032638;27;105716;-72
2023/08/10 02:22:41;;;;;;;4.37;3.97;;;;;;;14.70;100.00;96750.88;5033274;27;101969;-72
2023/08/10 02:25:08;;;;;;;3.90;3.60;;;;;;;14.72;100.00;96753.28;5033325;27;105741;-72
2023/08/10 02:27:36;;;;;;;5.00;4.13;;;;;;;14.68;100.00;96746.84;5032664;27;105404;-72
2023/08/10 02:30:06;;;;;;;4.63;3.93;;;;;;;14.67;100.00;96747.94;5033161;27;101994;-72
2023/08/10 02:32:34;;;;;;;4.83;4.43;;;;;;;14.69;100.00;96748.47;5033301;27;105652;-72
2023/08/10 02:35:01;;;;;;;5.20;4.70;;;;;;;14.71;100.00;96738.31;5032575;27;105059;-72
2023/08/10 02:37:28;;;;;;;4.37;4.07;;;;;;;14.73;100.00;96738.84;5036450;27;101961;-72
2023/08/10 02:39:56;;;;;;;4.63;4.20;;;;;;;14.72;100.00;96735.34;5032628;27;105812;-72
2023/08/10 02:42:23;;;;;;;4.80;4.50;;;;;;;14.70;100.00;96742.03;5033141;27;101942;-72
2023/08/10 02:44:50;;;;;;;5.43;4.93;;;;;;;14.62;100.00;96756.78;5033028;27;105007;-72
2023/08/10 02:47:19;;;;;;;5.90;5.40;;;;;;;14.64;100.00;96753.81;5032091;27;105504;-72
2023/08/10 02:49:46;;;;;;;5.30;4.80;;;;;;;14.66;100.00;96749.00;5033042;27;102033;-72
2023/08/10 02:52:14;;;;;;;5.23;4.83;;;;;;;14.67;100.00;96755.97;5032720;27;105249;-72
2023/08/10 02:54:41;;;;;;;6.30;5.80;;;;;;;14.62;100.00;96761.31;5032109;27;105745;-72
2023/08/10 02:57:08;;;;;;;6.80;6.20;;;;;;;14.58;100.00;96766.41;5051141;27;101826;-72
2023/08/10 02:59:36;;;;;;;6.83;6.00;;;;;;;14.54;100.00;96761.81;5053566;27;103244;-72
2023/08/10 03:02:04;;;;;;;6.90;6.30;;;;;;;14.54;100.00;96775.22;5032876;27;101946;-72
2023/08/10 03:04:33;;;;;;;7.17;6.57;;;;;;;14.50;100.00;96776.81;5032702;27;105346;-72
2023/08/10 03:07:01;;;;;;;8.17;7.37;;;;;;;14.51;100.00;96778.44;5031888;27;105847;-72
2023/08/10 03:09:28;;;;;;;9.30;8.27;;;;;;;14.51;100.00;96786.47;5032639;27;101970;-72
2023/08/10 03:11:56;;;;;;;9.87;8.90;;;;;;;14.48;100.00;96787.78;5032414;27;105548;-72
2023/08/10 03:14:27;;;;;;;11.03;9.53;;;;;;;14.45;100.00;96790.19;5031986;27;105547;-72
2023/08/10 03:16:55;;;;;;;10.63;9.60;;;;;;;14.44;100.00;96799.31;5032598;27;102375;-72
2023/08/10 03:19:23;;;;;;;10.67;9.67;;;;;;;14.42;100.00;96798.75;5032526;27;105550;-72
2023/08/10 03:21:56;;;;;;;9.67;8.87;;;;;;;14.37;100.00;96804.06;5035075;27;105344;-72
2023/08/10 03:24:24;;;;;;;11.63;10.63;;;;;;;14.36;100.00;96805.16;5032657;27;105423;-72
2023/08/10 03:26:51;;;;;;;11.63;10.53;;;;;;;14.35;100.00;96799.00;5030647;27;105637;-72
2023/08/10 03:29:20;;;;;;;11.27;10.27;;;;;;;14.32;100.00;96804.06;5031176;27;102130;-72
2023/08/10 03:31:47;;;;;;;11.53;10.43;;;;;;;14.38;100.00;96808.38;5031394;27;105168;-72
2023/08/10 03:34:15;;;;;;;11.27;10.27;;;;;;;14.40;100.00;96806.25;5030886;27;105459;-72
2023/08/10 03:36:42;;;;;;;10.67;9.60;;;;;;;14.39;100.00;96815.34;5031162;27;102408;-72
2023/08/10 03:39:11;;;;;;;11.00;10.00;;;;;;;14.34;100.00;96823.34;5032415;27;104948;-72
2023/08/10 03:41:39;;;;;;;10.67;9.77;;;;;;;14.37;100.00;96823.63;5030604;27;105865;-72
2023/08/10 03:44:06;;;;;;;11.17;9.87;;;;;;;14.33;100.00;96821.75;5053927;27;101886;-72
2023/08/10 03:46:34;;;;;;;11.07;10.10;;;;;;;14.29;100.00;96821.44;5031165;27;105994;-72
2023/08/10 03:49:01;;;;;;;10.17;9.17;;;;;;;14.33;100.00;96819.84;5031117;27;102274;-72
2023/08/10 03:51:29;;;;;;;9.77;8.93;;;;;;;14.41;100.00;96818.53;5015420;27;105323;-72
2023/08/10 03:53:57;;;;;;;11.97;10.87;;;;;;;14.35;100.00;96827.63;5031505;27;105784;-72
2023/08/10 03:56:26;;;;;;;11.57;10.50;;;;;;;14.34;100.00;96828.69;5030920;27;101985;-72
2023/08/10 03:58:53;;;;;;;10.70;9.80;;;;;;;14.33;100.00;96838.59;5030632;27;105356;-72
2023/08/10 04:01:22;;;;;;;11.53;10.47;;;;;;;14.34;100.00;96840.19;5031162;27;105682;-72
2023/08/10 04:03:49;;;;;;;10.83;9.80;;;;;;;14.37;100.00;96837.00;5030674;27;102008;-72
2023/08/10 04:06:16;;;;;;;11.13;10.07;;;;;;;14.42;100.00;96841.56;5034595;27;105515;-72
2023/08/10 04:08:44;;;;;;;10.93;9.93;;;;;;;14.46;100.00;96831.94;5030652;27;102431;-72
2023/08/10 04:11:11;;;;;;;10.60;9.63;;;;;;;14.51;100.00;96834.63;5031902;27;105229;-72
2023/08/10 04:13:40;;;;;;;10.70;9.60;;;;;;;14.54;100.00;96832.22;5031197;27;105943;-72
2023/08/10 04:16:07;;;;;;;8.83;8.03;;;;;;;14.60;100.00;96839.19;5031699;27;102010;-72
2023/08/10 04:18:34;;;;;;;8.90;8.10;;;;;;;14.61;100.00;96838.13;5031725;27;105196;-72
2023/08/10 04:21:02;;;;;;;8.20;7.50;;;;;;;14.65;100.00;96843.75;5031044;27;105407;-72
2023/08/10 04:23:29;;;;;;;7.50;6.90;;;;;;;14.66;100.00;96837.34;5031576;27;101985;-72
2023/08/10 04:25:56;;;;;;;8.13;7.33;;;;;;;14.69;100.00;96842.97;5034268;27;105510;-72
2023/08/10 04:28:23;;;;;;;8.43;7.63;;;;;;;14.73;100.00;96843.25;5049798;27;102348;-72
2023/08/10 04:30:52;;;;;;;8.20;7.37;;;;;;;14.75;100.00;96846.44;5031231;27;105251;-72
2023/08/10 04:33:19;;;;;;;7.97;7.20;;;;;;;14.77;100.00;96845.13;5048943;27;103119;-72
2023/08/10 04:35:47;;;;;;;7.60;6.90;;;;;;;14.79;100.00;96842.19;5034325;27;102122;-72
2023/08/10 04:38:14;;;;;;;9.33;8.47;;;;;;;14.82;100.00;96857.72;5034942;27;105208;-72
2023/08/10 04:40:43;;;;;;;8.70;7.93;;;;;;;14.82;100.00;96849.69;5034302;27;105824;-72
2023/08/10 04:43:10;;;;;;;7.63;6.93;;;;;;;14.87;100.00;96849.72;5035208;27;101914;-72
2023/08/10 04:45:37;;;;;;;7.83;7.23;;;;;;;14.90;100.00;96854.50;5034941;27;105621;-72
2023/08/10 04:48:07;;;;;;;8.30;7.60;;;;;;;14.90;100.00;96860.69;5037389;27;105641;-72
2023/08/10 04:50:34;;;;;;;7.83;7.20;;;;;;;14.92;100.00;96855.03;5034964;27;104992;-72
2023/08/10 04:53:02;;;;;;;9.53;8.73;;;;;;;14.87;100.00;96860.41;5052593;27;102769;-72
2023/08/10 04:55:29;;;;;;;9.13;8.23;;;;;;;14.83;100.00;96856.66;5034626;27;101956;-72
2023/08/10 04:57:56;;;;;;;7.93;7.17;;;;;;;14.81;100.00;96864.13;5034017;27;104161;-72
2023/08/10 05:00:24;;;;;;;8.10;7.40;;;;;;;14.79;100.00;96863.59;5034289;27;105587;-72
2023/08/10 05:02:51;;;;;;;8.13;7.40;;;;;;;14.86;100.00;96872.19;5034669;27;101908;-72
2023/08/10 05:05:20;;;;;;;7.50;6.70;;;;;;;14.85;100.00;96874.06;5034841;27;105271;-72
2023/08/10 05:07:48;;;;;;;7.53;6.90;;;;;;;14.88;100.00;96872.72;5033910;27;105676;-72
2023/08/10 05:10:15;;;;;;;7.10;6.50;;;;;;;14.97;100.00;96871.13;5037988;27;101989;-72
2023/08/10 05:12:42;;;;;;;7.07;6.47;;;;;;;15.10;100.00;96863.38;5033941;27;104580;-72
2023/08/10 05:15:10;;;;;;;6.87;6.37;;;;;;;15.24;100.00;96869.00;5034279;27;102107;-72
2023/08/10 05:17:38;;;;;;;7.23;6.53;;;;;;;15.32;100.00;96863.13;5034356;27;105576;-72
2023/08/10 05:20:10;;;;;;;7.03;6.43;;;;;;;15.35;100.00;96873.31;5033528;27;105707;-72
2023/08/10 05:22:41;;;;;;;8.17;7.37;;;;;;;15.45;100.00;96871.47;5052877;27;101732;-72
2023/08/10 05:25:10;;;;;;;7.83;7.10;;;;;;;15.41;100.00;96867.69;5034414;27;105181;-72
2023/08/10 05:27:37;;;;;;;7.37;6.77;;;;;;;15.47;100.00;96871.19;5033427;27;104738;-72
2023/08/10 05:30:08;;;;;;;7.07;6.47;;;;;;;15.54;100.00;96872.50;5034055;27;102352;-72
2023/08/10 05:32:37;;;;;;;6.87;6.37;;;;;;;15.62;100.00;96876.53;5055460;27;102510;-72
2023/08/10 05:35:06;;;;;;;6.50;5.97;;;;;;;15.54;100.00;96874.41;5034063;27;101950;-72
2023/08/10 05:37:34;;;;;;;6.07;5.57;;;;;;;15.60;100.00;96876.78;5052443;27;102413;-72
2023/08/10 05:40:07;;;;;;;5.77;5.33;;;;;;;15.62;100.00;96877.34;5033232;27;105556;-72
2023/08/10 05:42:34;;;;;;;5.33;4.93;;;;;;;15.70;100.00;96865.28;5034083;27;101935;-72
2023/08/10 05:45:01;;;;;;;4.77;4.47;;;;;;;15.77;100.00;96865.78;5033609;27;105597;-72
2023/08/10 05:47:28;;;;;;;5.40;5.00;;;;;;;15.82;100.00;96873.81;5032141;27;105492;-72
2023/08/10 05:49:56;;;;;;;5.63;5.23;;;;;;;15.77;100.00;96876.50;5034046;27;101941;-72
2023/08/10 05:52:23;;;;;;;6.03;5.13;;;;;;;15.75;100.00;96878.66;5033698;27;105256;-72
2023/08/10 05:54:50;;;;;;;5.20;4.80;;;;;;;15.93;100.00;96875.41;5036787;27;105471;-72
2023/08/10 05:57:19;;;;;;;5.30;4.90;;;;;;;15.86;100.00;96875.69;5033731;27;105984;-72
2023/08/10 05:59:47;;;;;;;4.63;4.30;;;;;;;15.89;100.00;96871.66;5032904;27;105695;-72
2023/08/10 06:02:14;;;;;;;4.77;4.37;;;;;;;15.87;100.00;96868.44;5052239;27;101857;-72
2023/08/10 06:04:42;;;;;;;4.60;4.07;;;;;;;15.92;100.00;96874.59;5033677;27;104847;-72
2023/08/10 06:07:09;;;;;;;4.50;4.20;;;;;;;15.96;100.00;96869.50;5033209;27;106026;-72
2023/08/10 06:09:36;;;;;;;4.33;4.03;;;;;;;16.01;100.00;96872.16;5052031;27;101814;-72
2023/08/10 06:12:04;;;;;;;4.40;4.10;;;;;;;16.16;100.00;96872.13;5052022;27;102603;-72
2023/08/10 06:14:33;;;;;;;4.63;4.33;;;;;;;16.14;100.00;96876.97;5032932;27;105654;-72
2023/08/10 06:17:00;;;;;;;4.30;4.00;;;;;;;16.13;100.00;96880.72;5036902;27;101832;-72
2023/08/10 06:19:27;;;;;;;3.90;3.60;;;;;;;16.35;100.00;96879.28;5051086;27;103029;-72
2023/08/10 06:21:55;;;;;;;4.07;3.77;;;;;;;16.48;100.00;96875.25;5033164;27;101918;-72
2023/08/10 06:24:22;;;;;;;3.90;3.60;;;;;;;16.57;100.00;96870.91;5033332;27;105276;-72
2023/08/10 06:26:50;;;;;;;3.83;3.53;;;;;;;16.62;100.00;96871.69;5032674;27;105579;-72
2023/08/10 06:29:17;;;;;;;3.90;3.60;;;;;;;16.56;100.00;96875.47;5051551;27;102118;-72
2023/08/10 06:31:46;;;;;;;3.60;3.30;;;;;;;16.57;100.00;96873.59;5033162;27;105634;-72
2023/08/10 06:34:13;;;;;;;4.47;4.07;;;;;;;16.69;100.00;96879.44;5032543;27;105551;-72
2023/08/10 06:36:40;;;;;;;4.63;4.23;;;;;;;16.67;100.00;96870.88;5036540;27;101955;-72
2023/08/10 06:39:10;;;;;;;4.30;3.90;;;;;;;16.83;100.00;96880.41;5032495;27;105499;-72
2023/08/10 06:41:37;;;;;;;3.77;3.43;;;;;;;16.93;100.00;96880.38;5033042;27;102004;-72
2023/08/10 06:44:07;;;;;;;3.60;3.30;;;;;;;17.12;100.00;96884.03;5032791;27;105577;-72
2023/08/10 06:46:34;;;;;;;4.03;3.63;;;;;;;16.95;100.00;96878.22;5032394;27;105589;-72
2023/08/10 06:49:03;;;;;;;3.70;3.33;;;;;;;17.05;100.00;96876.25;5032814;27;102378;-72
2023/08/10 06:51:30;;;;;;;4.03;3.73;;;;;;;17.03;100.00;96880.31;5032878;27;104188;-72
2023/08/10 06:53:57;;;;;;;3.23;3.00;;;;;;;17.03;100.00;96873.06;5032235;27;104319;-72
2023/08/10 06:56:24;;;;;;;3.40;3.10;;;;;;;16.77;100.00;96874.28;5032951;27;102035;-72
2023/08/10 06:58:52;;;;;;;3.63;2.63;;;;;;;16.77;100.00;96870.78;5034576;27;103757;-72
2023/08/10 07:01:20;;;;;;;3.77;2.33;;;;;;;16.66;100.00;96863.88;5032696;27;102178;-72
2023/08/10 07:03:48;;;;;;;2.20;2.10;;;;;;;16.91;100.00;96869.09;5032730;27;105021;-72
2023/08/10 07:06:17;;;;;;;2.83;2.63;;;;;;;17.06;100.00;96869.81;5032181;27;105293;-72
2023/08/10 07:08:45;;;;;;;2.60;2.40;;;;;;;17.14;100.00;96873.78;5032552;27;102489;-72
2023/08/10 07:11:12;;;;;;;2.70;2.50;;;;;;;17.19;100.00;96873.75;5032643;27;105594;-72
2023/08/10 07:13:41;;;;;;;3.20;2.90;;;;;;;17.37;100.00;96873.06;5031858;27;105491;-72
2023/08/10 07:16:08;;;;;;;3.10;2.80;;;;;;;17.35;100.00;96881.44;5032689;27;101960;-72
2023/08/10 07:18:35;;;;;;;3.60;2.80;;;;;;;17.72;100.00;96878.97;5032622;27;105385;-72
2023/08/10 07:21:02;;;;;;;2.80;2.50;;;;;;;17.37;100.00;96873.88;5035288;27;104277;-72
2023/08/10 07:23:31;;;;;;;3.40;2.77;;;;;;;17.33;100.00;96867.44;5032434;27;104153;-72
2023/08/10 07:25:58;;;;;;;2.90;2.70;;;;;;;16.97;100.00;96878.75;5031653;27;105771;-72
2023/08/10 07:28:26;;;;;;;3.27;2.60;;;;;;;17.19;100.00;96879.13;5031954;27;101907;-72
2023/08/10 07:30:53;;;;;;;2.83;2.63;;;;;;;17.21;100.00;96893.88;5032401;27;105467;-72
2023/08/10 07:33:21;;;;;;;2.90;2.70;;;;;;;17.15;100.00;96886.13;5031646;27;105617;-72
2023/08/10 07:35:48;;;;;;;3.23;2.97;;;;;;;17.09;100.00;96885.38;5032263;27;101775;-72
2023/08/10 07:38:17;;;;;;;3.03;2.83;;;;;;;17.05;100.00;96888.91;5033148;27;102082;-72
2023/08/10 07:40:45;;;;;;;3.13;2.90;;;;;;;17.05;100.00;96894.28;5031579;27;105461;-72
2023/08/10 07:43:12;;;;;;;3.37;3.07;;;;;;;17.21;100.00;96895.75;5035418;27;101925;-72
2023/08/10 07:45:39;;;;;;;3.27;2.87;;;;;;;17.34;100.00;96890.56;5031400;27;105295;-72
2023/08/10 07:48:07;;;;;;;2.90;2.70;;;;;;;17.32;100.00;96894.59;5050485;27;102035;-72
2023/08/10 07:50:34;;;;;;;2.57;2.37;;;;;;;17.47;100.00;96897.22;5031963;27;105581;-72
2023/08/10 07:53:03;;;;;;;2.60;2.40;;;;;;;17.53;100.00;96906.84;5049718;27;102946;-72
2023/08/10 07:55:30;;;;;;;3.83;2.70;;;;;;;17.27;100.00;96900.06;5050379;27;102188;-72
2023/08/10 07:57:59;;;;;;;3.33;2.50;;;;;;;17.30;100.00;96911.03;5049555;27;102823;-72
2023/08/10 08:00:26;;;;;;;2.80;2.60;;;;;;;17.51;100.00;96904.47;5031283;27;104616;-72
2023/08/10 08:02:53;;;;;;;2.20;2.10;;;;;;;17.79;100.00;96900.16;5050103;27;101849;-72
2023/08/10 08:05:20;;;;;;;3.80;2.70;;;;;;;17.79;100.00;96906.38;5053095;27;102077;-72
2023/08/10 08:07:47;;;;;;;2.70;2.50;;;;;;;17.59;100.00;96903.03;5031785;27;102184;-72
2023/08/10 08:10:14;;;;;;;2.60;2.33;;;;;;;17.98;100.00;96911.84;5030673;27;105305;-72
2023/08/10 08:12:42;;;;;;;2.93;2.73;;;;;;;17.98;100.00;96909.94;5031366;27;105580;-72
2023/08/10 08:15:11;;;;;;;2.80;2.60;;;;;;;17.75;100.00;96910.69;5031613;27;101935;-72
2023/08/10 08:18:15;;;;;;;3.07;2.80;;;;;;;17.82;100.00;96903.09;5049986;27;102873;-72
2023/08/10 08:20:42;;;;;;;2.70;2.50;;;;;;;18.08;100.00;96903.66;5031064;27;105444;-72
2023/08/10 08:23:09;;;;;;;2.60;2.37;;;;;;;18.48;100.00;96901.34;5031444;27;102084;-72
2023/08/10 08:25:36;;;;;;;2.40;2.20;;;;;;;18.49;100.00;96894.88;5031223;27;105733;-72
2023/08/10 08:28:04;;;;;;;2.30;2.10;;;;;;;18.74;100.00;96897.25;5034185;27;101917;-72
2023/08/10 08:30:33;;;;;;;2.00;1.90;;;;;;;18.79;100.00;96894.50;5031526;27;104604;-72
2023/08/10 08:33:00;;;;;;;1.83;1.73;;;;;;;18.37;100.00;96897.16;5031086;27;105335;-72
2023/08/10 08:35:27;;;;;;;2.00;1.90;;;;;;;18.43;100.00;96889.84;5031412;27;102121;-72
2023/08/10 08:37:55;;;;;;;1.80;1.70;;;;;;;18.54;100.00;96888.63;5031306;27;105391;-72
2023/08/10 08:40:22;;;;;;;2.00;1.80;;;;;;;18.42;100.00;96901.72;5030690;27;105867;-72
2023/08/10 08:42:50;;;;;;;1.77;1.67;;;;;;;18.14;100.00;96903.31;5031272;27;101804;-72
2023/08/10 08:45:19;;;;;;;1.90;1.80;;;;;;;18.72;100.00;96906.72;5031390;27;102999;-72
2023/08/10 08:47:48;;;;;;;2.23;1.80;;;;;;;18.81;100.00;96907.69;5034103;27;105546;-72
2023/08/10 08:50:16;;;;;;;1.70;1.60;;;;;;;19.39;100.00;96911.72;5031442;27;105380;-72
2023/08/10 08:52:45;;;;;;;1.37;1.30;;;;;;;19.22;100.00;96909.56;5030525;27;105510;-72
2023/08/10 08:55:12;;;;;;;1.50;1.40;;;;;;;18.93;100.00;96902.66;5031189;27;101880;-72
2023/08/10 08:57:40;;;;;;;2.10;1.90;;;;;;;18.96;100.00;96910.19;5030748;27;104995;-72
2023/08/10 09:00:08;;;;;;;2.00;1.90;;;;;;;19.22;100.00;96904.16;5030617;27;105297;-72
2023/08/10 09:02:36;;;;;;;1.93;1.30;;;;;;;19.57;100.00;96908.22;5031028;27;101974;-72
2023/08/10 09:05:05;;;;;;;1.70;1.60;;;;;;;19.12;100.00;96904.28;5049539;27;102672;-72
2023/08/10 09:07:32;;;;;;;1.80;1.70;;;;;;;19.22;100.00;96903.34;5030385;27;105644;-72
2023/08/10 09:09:59;;;;;;;1.90;1.80;;;;;;;19.46;100.00;96906.78;5034332;27;101890;-72
2023/08/10 09:12:30;;;;;;;1.80;1.70;;;;;;;19.48;100.00;96897.28;5048837;27;102786;-72
2023/08/10 09:15:03;;;;;;;2.70;1.80;;;;;;;19.25;100.00;96894.69;5031092;27;102006;-72
2023/08/10 09:17:30;;;;;;;1.90;1.80;;;;;;;20.02;100.00;96897.44;5031000;27;105657;-72
2023/08/10 09:19:58;;;;;;;1.87;1.77;;;;;;;19.88;100.00;96888.50;5030696;27;105480;-72
2023/08/10 09:22:32;;;;;;;2.00;1.73;;;;;;;20.04;100.00;96889.03;5034376;27;101970;-72
2023/08/10 09:24:59;;;;;;;1.70;1.60;;;;;;;20.02;100.00;96896.63;5052542;27;102896;-72
2023/08/10 09:27:27;;;;;;;2.20;2.00;;;;;;;19.71;100.00;96892.84;5033732;27;105455;-72
2023/08/10 09:29:56;;;;;;;1.90;1.80;;;;;;;20.21;100.00;96895.50;5052264;27;101838;-72
2023/08/10 09:32:23;;;;;;;1.97;1.70;;;;;;;20.31;100.00;96892.59;5037152;27;102695;-72
2023/08/10 09:34:51;;;;;;;1.50;1.40;;;;;;;20.21;100.00;96894.72;5052559;27;102023;-72
2023/08/10 09:37:18;;;;;;;1.83;1.60;;;;;;;20.10;100.00;96894.06;5052196;27;102833;-72
2023/08/10 09:39:47;;;;;;;1.70;1.60;;;;;;;21.19;100.00;96889.44;5033567;27;105692;-72
2023/08/10 09:42:15;;;;;;;1.30;1.20;;;;;;;21.36;100.00;96894.97;5052451;27;101962;-72
2023/08/10 09:44:44;;;;;;;1.63;1.37;;;;;;;20.71;100.00;96893.69;5034050;27;105454;-72
2023/08/10 09:47:12;;;;;;;1.70;1.60;;;;;;;20.58;100.00;96883.69;5033436;27;105829;-72
2023/08/10 09:49:40;;;;;;;1.60;1.50;;;;;;;20.65;100.00;96890.28;5033732;27;101923;-72
2023/08/10 09:52:08;;;;;;;1.83;1.73;;;;;;;20.94;100.00;96881.88;5033826;27;104152;-72
2023/08/10 09:54:37;;;;;;;1.30;1.30;;;;;;;21.47;100.00;96885.53;5036807;27;105337;-72
2023/08/10 09:57:06;;;;;;;1.23;1.13;;;;;;;21.50;100.00;96888.41;5052072;27;102436;-72
2023/08/10 09:59:34;;;;;;;1.13;1.10;;;;;;;21.17;99.60;96888.91;5032698;27;105416;-72
2023/08/10 10:02:01;;;;;;;1.30;1.20;;;;;;;20.76;100.00;96882.78;5033716;27;102190;-72
2023/08/10 10:04:29;;;;;;;1.33;1.23;;;;;;;21.10;100.00;96880.44;5033761;27;105176;-72
2023/08/10 10:06:57;;;;;;;1.60;1.50;;;;;;;20.71;100.00;96877.47;5033101;27;104652;-72
2023/08/10 10:09:25;;;;;;;1.60;1.50;;;;;;;21.08;100.00;96882.66;5033421;27;102043;-72
2023/08/10 10:11:53;;;;;;;1.40;1.30;;;;;;;20.64;100.00;96877.88;5033916;27;105486;-72
2023/08/10 10:14:21;;;;;;;1.30;1.30;;;;;;;21.06;100.00;96874.03;5032964;27;105715;-72
2023/08/10 10:16:52;;;;;;;1.40;1.30;;;;;;;21.24;100.00;96879.28;5055157;27;101808;-72
2023/08/10 10:19:19;;;;;;;1.50;1.40;;;;;;;21.72;100.00;96884.91;5032800;27;105456;-72
2023/08/10 10:21:47;;;;;;;1.90;1.73;;;;;;;21.56;100.00;96879.06;5033379;27;102033;-72
2023/08/10 10:24:18;;;;;;;1.60;1.30;;;;;;;20.84;100.00;96876.66;5051870;27;103054;-72
2023/08/10 10:26:58;;;;;;;1.40;1.30;;;;;;;20.89;100.00;96873.88;5032530;27;105647;-72
2023/08/10 10:29:37;;;;;;;1.97;1.30;;;;;;;21.43;100.00;96877.22;5051770;27;101839;-72
2023/08/10 10:32:15;;;;;;;1.70;1.40;;;;;;;21.17;100.00;96869.97;5051229;27;102633;-76
2023/08/10 10:34:43;;;;;;;1.87;1.23;;;;;;;21.39;100.00;96864.59;5032495;27;104458;-71
2023/08/10 10:37:13;;;;;;;1.30;1.20;;;;;;;21.83;96.83;96862.69;5036517;27;102010;-76
2023/08/10 10:39:41;;;;;;;1.23;1.10;;;;;;;21.75;77.57;96865.34;5032622;27;105334;-70
2023/08/10 10:42:11;;;;;;;1.53;1.43;;;;;;;21.30;71.81;96858.34;5032995;27;102138;-71
2023/08/10 10:45:06;;;;;;;2.37;1.27;;;;;;;21.61;87.46;96864.59;5033136;27;105388;-71
2023/08/10 10:47:38;;;;;;;1.20;1.20;;;;;;;21.08;91.94;96856.38;5032475;27;105240;-71
2023/08/10 10:50:17;;;;;;;1.80;1.13;;;;;;;22.17;92.22;96856.66;5032927;27;101871;-71
2023/08/10 10:52:54;;;;;;;1.30;1.30;;;;;;;22.12;97.26;96865.72;5032976;27;105607;-71
2023/08/10 10:55:22;;;;;;;2.50;1.50;;;;;;;22.32;72.96;96858.94;5050642;27;102809;-71
2023/08/10 10:57:50;;;;;;;1.37;1.27;;;;;;;21.81;64.67;96864.13;5032272;27;104062;-71
2023/08/10 11:00:22;;;;;;;1.37;1.10;;;;;;;22.48;75.96;96852.81;5054394;27;102569;-71
2023/08/10 11:02:50;;;;;;;1.50;1.40;;;;;;;22.75;67.66;96854.47;5032966;27;102381;-71
2023/08/10 11:05:18;;;;;;;3.20;1.50;;;;;;;21.90;62.73;96852.22;5032642;27;105734;-71
2023/08/10 11:07:48;;;;;;;1.13;1.00;;;;;;;22.48;66.14;96847.41;5032121;27;105695;-71
2023/08/10 11:10:16;;;;;;;1.40;1.20;;;;;;;22.46;78.95;96848.81;5032494;27;101965;-71
2023/08/10 11:12:45;;;;;;;1.43;1.20;;;;;;;22.93;58.75;96842.53;5050919;27;102915;-71
2023/08/10 11:15:14;;;;;;;1.70;1.20;;;;;;;22.75;67.15;96846.34;5032010;27;104589;-71
2023/08/10 11:17:49;;;;;;;1.10;1.10;;;;;;;22.79;64.56;96839.19;5050686;27;101848;-71
2023/08/10 11:20:18;;;;;;;1.20;1.10;;;;;;;22.78;56.05;96843.00;5032555;27;105508;-71
2023/08/10 11:22:46;;;;;;;1.10;1.00;;;;;;;22.98;55.45;96832.34;5053667;27;102787;-71